sensor_id;sensor_type;location;lat;lon;timestamp;temperature;humidity
20442;DHT22;10380;52.102;20.614;2022-10-31T00:01:22;9.50;99.90
20442;DHT22;10380;52.102;20.614;2022-10-31T00:03:50;9.40;99.90
20442;DHT22;10380;52.102;20.614;2022-10-31T00:06:17;9.40;99.90
20442;DHT22;10380;52.102;20.614;2022-10-31T00:08:54;9.50;99.90
20442;DHT22;10380;52.102;20.614;2022-10-31T00:11:22;9.40;99.90
20442;DHT22;10380;52.102;20.614;2022-10-31T00:13:49;9.40;99.90
20442;DHT22;10380;52.102;20.614;2022-10-31T00:16:21;9.50;99.90
20442;DHT22;10380;52.102;20.614;2022-10-31T00:18:53;9.40;99.90
20442;DHT22;10380;52.102;20.614;2022-10-31T00:21:20;9.50;99.90
20442;DHT22;10380;52.102;20.614;2022-10-31T00:23:47;9.50;99.90
20442;DHT22;10380;52.102;20.614;2022-10-31T00:26:15;9.50;99.90
20442;DHT22;10380;52.102;20.614;2022-10-31T00:28:42;9.50;99.90
20442;DHT22;10380;52.102;20.614;2022-10-31T00:31:10;9.50;99.90
20442;DHT22;10380;52.102;20.614;2022-10-31T00:33:38;9.40;99.90
20442;DHT22;10380;52.102;20.614;2022-10-31T00:36:06;9.50;99.90
20442;DHT22;10380;52.102;20.614;2022-10-31T00:38:33;9.40;99.90
20442;DHT22;10380;52.102;20.614;2022-10-31T00:41:00;9.40;99.90
20442;DHT22;10380;52.102;20.614;2022-10-31T00:43:27;9.40;99.90
20442;DHT22;10380;52.102;20.614;2022-10-31T00:45:54;9.40;99.90
20442;DHT22;10380;52.102;20.614;2022-10-31T00:48:20;9.30;99.90
20442;DHT22;10380;52.102;20.614;2022-10-31T00:50:47;9.40;99.90
20442;DHT22;10380;52.102;20.614;2022-10-31T00:53:14;9.30;99.90
20442;DHT22;10380;52.102;20.614;2022-10-31T00:55:41;9.30;99.90
20442;DHT22;10380;52.102;20.614;2022-10-31T00:58:08;9.30;99.90
20442;DHT22;10380;52.102;20.614;2022-10-31T01:00:35;9.20;99.90
20442;DHT22;10380;52.102;20.614;2022-10-31T01:03:02;9.20;99.90
20442;DHT22;10380;52.102;20.614;2022-10-31T01:05:29;9.20;99.90
20442;DHT22;10380;52.102;20.614;2022-10-31T01:07:56;9.10;99.90
20442;DHT22;10380;52.102;20.614;2022-10-31T01:10:23;9.10;99.90
20442;DHT22;10380;52.102;20.614;2022-10-31T01:12:52;9.00;99.90
20442;DHT22;10380;52.102;20.614;2022-10-31T01:15:22;9.00;99.90
20442;DHT22;10380;52.102;20.614;2022-10-31T01:17:49;9.00;99.90
20442;DHT22;10380;52.102;20.614;2022-10-31T01:20:17;9.00;99.90
20442;DHT22;10380;52.102;20.614;2022-10-31T01:22:44;9.00;99.90
20442;DHT22;10380;52.102;20.614;2022-10-31T01:25:11;9.00;99.90
20442;DHT22;10380;52.102;20.614;2022-10-31T01:27:38;9.00;99.90
20442;DHT22;10380;52.102;20.614;2022-10-31T01:30:06;9.00;99.90
20442;DHT22;10380;52.102;20.614;2022-10-31T01:32:33;8.90;99.90
20442;DHT22;10380;52.102;20.614;2022-10-31T01:35:00;8.90;99.90
20442;DHT22;10380;52.102;20.614;2022-10-31T01:37:27;8.90;99.90
20442;DHT22;10380;52.102;20.614;2022-10-31T01:39:53;8.90;99.90
20442;DHT22;10380;52.102;20.614;2022-10-31T01:42:22;9.00;99.90
20442;DHT22;10380;52.102;20.614;2022-10-31T01:44:59;9.00;99.90
20442;DHT22;10380;52.102;20.614;2022-10-31T01:50:01;9.00;99.90
20442;DHT22;10380;52.102;20.614;2022-10-31T01:52:45;9.00;99.90
20442;DHT22;10380;52.102;20.614;2022-10-31T01:55:34;9.00;99.90
20442;DHT22;10380;52.102;20.614;2022-10-31T01:58:07;9.00;99.90
20442;DHT22;10380;52.102;20.614;2022-10-31T02:00:36;8.90;99.90
20442;DHT22;10380;52.102;20.614;2022-10-31T02:03:03;9.00;99.90
20442;DHT22;10380;52.102;20.614;2022-10-31T02:05:31;9.00;99.90
20442;DHT22;10380;52.102;20.614;2022-10-31T02:08:18;9.00;99.90
20442;DHT22;10380;52.102;20.614;2022-10-31T02:10:46;9.00;99.90
20442;DHT22;10380;52.102;20.614;2022-10-31T02:13:13;9.10;99.90
20442;DHT22;10380;52.102;20.614;2022-10-31T02:15:43;9.10;99.90
20442;DHT22;10380;52.102;20.614;2022-10-31T02:18:11;9.10;99.90
20442;DHT22;10380;52.102;20.614;2022-10-31T02:21:11;9.20;99.90
20442;DHT22;10380;52.102;20.614;2022-10-31T02:26:45;9.10;99.90
20442;DHT22;10380;52.102;20.614;2022-10-31T02:32:48;9.20;99.90
20442;DHT22;10380;52.102;20.614;2022-10-31T02:48:44;9.20;99.90
20442;DHT22;10380;52.102;20.614;2022-10-31T02:51:12;9.20;99.90
20442;DHT22;10380;52.102;20.614;2022-10-31T02:53:39;9.20;99.90
20442;DHT22;10380;52.102;20.614;2022-10-31T02:56:08;9.10;99.90
20442;DHT22;10380;52.102;20.614;2022-10-31T02:58:42;9.10;99.90
20442;DHT22;10380;52.102;20.614;2022-10-31T03:04:17;9.10;99.90
20442;DHT22;10380;52.102;20.614;2022-10-31T03:16:16;9.00;99.90
20442;DHT22;10380;52.102;20.614;2022-10-31T03:18:51;9.00;99.90
20442;DHT22;10380;52.102;20.614;2022-10-31T03:21:24;9.00;99.90
20442;DHT22;10380;52.102;20.614;2022-10-31T03:23:53;9.00;99.90
20442;DHT22;10380;52.102;20.614;2022-10-31T03:26:23;9.00;99.90
20442;DHT22;10380;52.102;20.614;2022-10-31T03:29:01;9.00;99.90
20442;DHT22;10380;52.102;20.614;2022-10-31T03:31:32;9.10;99.90
20442;DHT22;10380;52.102;20.614;2022-10-31T03:34:02;9.10;99.90
20442;DHT22;10380;52.102;20.614;2022-10-31T03:36:34;9.10;99.90
20442;DHT22;10380;52.102;20.614;2022-10-31T03:39:02;9.10;99.90
20442;DHT22;10380;52.102;20.614;2022-10-31T03:41:35;9.10;99.90
20442;DHT22;10380;52.102;20.614;2022-10-31T03:44:10;9.20;99.90
20442;DHT22;10380;52.102;20.614;2022-10-31T03:46:39;9.20;99.90
20442;DHT22;10380;52.102;20.614;2022-10-31T03:49:06;9.10;99.90
20442;DHT22;10380;52.102;20.614;2022-10-31T03:54:30;9.10;99.90
20442;DHT22;10380;52.102;20.614;2022-10-31T03:57:09;9.20;99.90
20442;DHT22;10380;52.102;20.614;2022-10-31T03:59:45;9.10;99.90
20442;DHT22;10380;52.102;20.614;2022-10-31T04:02:17;9.10;99.90
20442;DHT22;10380;52.102;20.614;2022-10-31T04:04:46;9.10;99.90
20442;DHT22;10380;52.102;20.614;2022-10-31T04:07:15;9.00;99.90
20442;DHT22;10380;52.102;20.614;2022-10-31T04:09:45;9.00;99.90
20442;DHT22;10380;52.102;20.614;2022-10-31T04:12:14;9.00;99.90
20442;DHT22;10380;52.102;20.614;2022-10-31T04:14:44;9.00;99.90
20442;DHT22;10380;52.102;20.614;2022-10-31T04:17:16;8.90;99.90
20442;DHT22;10380;52.102;20.614;2022-10-31T04:19:45;8.90;99.90
20442;DHT22;10380;52.102;20.614;2022-10-31T04:22:12;8.90;99.90
20442;DHT22;10380;52.102;20.614;2022-10-31T04:24:40;8.90;99.90
20442;DHT22;10380;52.102;20.614;2022-10-31T04:27:07;8.90;99.90
20442;DHT22;10380;52.102;20.614;2022-10-31T04:29:34;8.90;99.90
20442;DHT22;10380;52.102;20.614;2022-10-31T04:32:01;8.90;99.90
20442;DHT22;10380;52.102;20.614;2022-10-31T04:34:28;8.80;99.90
20442;DHT22;10380;52.102;20.614;2022-10-31T04:36:56;8.80;99.90
20442;DHT22;10380;52.102;20.614;2022-10-31T04:39:23;8.80;99.90
20442;DHT22;10380;52.102;20.614;2022-10-31T04:41:52;8.80;99.90
20442;DHT22;10380;52.102;20.614;2022-10-31T04:44:19;8.80;99.90
20442;DHT22;10380;52.102;20.614;2022-10-31T04:46:46;8.80;99.90
20442;DHT22;10380;52.102;20.614;2022-10-31T04:49:13;8.80;99.90
20442;DHT22;10380;52.102;20.614;2022-10-31T04:51:40;8.80;99.90
20442;DHT22;10380;52.102;20.614;2022-10-31T04:54:07;8.80;99.90
20442;DHT22;10380;52.102;20.614;2022-10-31T04:56:33;8.70;99.90
20442;DHT22;10380;52.102;20.614;2022-10-31T04:59:00;8.70;99.90
20442;DHT22;10380;52.102;20.614;2022-10-31T05:01:27;8.70;99.90
20442;DHT22;10380;52.102;20.614;2022-10-31T05:03:54;8.70;99.90
20442;DHT22;10380;52.102;20.614;2022-10-31T05:06:23;8.70;99.90
20442;DHT22;10380;52.102;20.614;2022-10-31T05:08:50;8.70;99.90
20442;DHT22;10380;52.102;20.614;2022-10-31T05:11:17;8.70;99.90
20442;DHT22;10380;52.102;20.614;2022-10-31T05:13:45;8.70;99.90
20442;DHT22;10380;52.102;20.614;2022-10-31T05:16:11;8.60;99.90
20442;DHT22;10380;52.102;20.614;2022-10-31T05:18:38;8.60;99.90
20442;DHT22;10380;52.102;20.614;2022-10-31T05:21:05;8.60;99.90
20442;DHT22;10380;52.102;20.614;2022-10-31T05:23:32;8.60;99.90
20442;DHT22;10380;52.102;20.614;2022-10-31T05:25:59;8.60;99.90
20442;DHT22;10380;52.102;20.614;2022-10-31T05:28:26;8.60;99.90
20442;DHT22;10380;52.102;20.614;2022-10-31T05:30:52;8.60;99.90
20442;DHT22;10380;52.102;20.614;2022-10-31T05:33:19;8.60;99.90
20442;DHT22;10380;52.102;20.614;2022-10-31T05:35:48;8.60;99.90
20442;DHT22;10380;52.102;20.614;2022-10-31T05:38:14;8.60;99.90
20442;DHT22;10380;52.102;20.614;2022-10-31T05:40:41;8.60;99.90
20442;DHT22;10380;52.102;20.614;2022-10-31T05:43:08;8.70;99.90
20442;DHT22;10380;52.102;20.614;2022-10-31T05:45:35;8.70;99.90
20442;DHT22;10380;52.102;20.614;2022-10-31T05:48:02;8.70;99.90
20442;DHT22;10380;52.102;20.614;2022-10-31T05:50:31;8.70;99.90
20442;DHT22;10380;52.102;20.614;2022-10-31T05:53:04;8.70;99.90
20442;DHT22;10380;52.102;20.614;2022-10-31T05:55:32;8.70;99.90
20442;DHT22;10380;52.102;20.614;2022-10-31T05:57:59;8.80;99.90
20442;DHT22;10380;52.102;20.614;2022-10-31T06:00:27;8.80;99.90
20442;DHT22;10380;52.102;20.614;2022-10-31T06:03:05;8.80;99.90
20442;DHT22;10380;52.102;20.614;2022-10-31T06:05:33;8.80;99.90
20442;DHT22;10380;52.102;20.614;2022-10-31T06:08:00;8.90;99.90
20442;DHT22;10380;52.102;20.614;2022-10-31T06:10:27;8.90;99.90
20442;DHT22;10380;52.102;20.614;2022-10-31T06:12:55;9.00;99.90
20442;DHT22;10380;52.102;20.614;2022-10-31T06:15:22;9.10;99.90
20442;DHT22;10380;52.102;20.614;2022-10-31T06:18:01;9.20;99.90
20442;DHT22;10380;52.102;20.614;2022-10-31T06:20:29;9.30;99.90
20442;DHT22;10380;52.102;20.614;2022-10-31T06:22:56;9.40;99.90
20442;DHT22;10380;52.102;20.614;2022-10-31T06:25:24;9.40;99.90
20442;DHT22;10380;52.102;20.614;2022-10-31T06:27:51;9.50;99.90
20442;DHT22;10380;52.102;20.614;2022-10-31T06:30:18;9.70;99.90
20442;DHT22;10380;52.102;20.614;2022-10-31T06:32:45;9.70;99.90
20442;DHT22;10380;52.102;20.614;2022-10-31T06:35:12;9.90;99.90
20442;DHT22;10380;52.102;20.614;2022-10-31T06:37:38;10.00;99.90
20442;DHT22;10380;52.102;20.614;2022-10-31T06:40:06;10.00;99.90
20442;DHT22;10380;52.102;20.614;2022-10-31T06:42:32;10.10;99.90
20442;DHT22;10380;52.102;20.614;2022-10-31T06:44:59;10.20;99.90
20442;DHT22;10380;52.102;20.614;2022-10-31T06:47:26;10.20;99.90
20442;DHT22;10380;52.102;20.614;2022-10-31T06:49:53;10.40;99.90
20442;DHT22;10380;52.102;20.614;2022-10-31T06:52:19;10.40;99.90
20442;DHT22;10380;52.102;20.614;2022-10-31T06:54:47;10.50;99.90
20442;DHT22;10380;52.102;20.614;2022-10-31T06:57:14;10.60;99.90
20442;DHT22;10380;52.102;20.614;2022-10-31T06:59:41;10.60;99.90
20442;DHT22;10380;52.102;20.614;2022-10-31T07:02:10;10.70;99.90
20442;DHT22;10380;52.102;20.614;2022-10-31T07:04:37;10.70;99.90
20442;DHT22;10380;52.102;20.614;2022-10-31T07:07:04;10.70;99.90
20442;DHT22;10380;52.102;20.614;2022-10-31T07:09:34;10.90;99.90
20442;DHT22;10380;52.102;20.614;2022-10-31T07:12:01;10.90;99.90
20442;DHT22;10380;52.102;20.614;2022-10-31T07:14:27;11.00;99.90
20442;DHT22;10380;52.102;20.614;2022-10-31T07:16:54;11.00;99.90
20442;DHT22;10380;52.102;20.614;2022-10-31T07:19:21;11.10;99.90
20442;DHT22;10380;52.102;20.614;2022-10-31T07:21:48;11.20;99.90
20442;DHT22;10380;52.102;20.614;2022-10-31T07:24:15;11.30;99.90
20442;DHT22;10380;52.102;20.614;2022-10-31T07:26:42;11.30;99.90
20442;DHT22;10380;52.102;20.614;2022-10-31T07:29:08;11.40;99.90
20442;DHT22;10380;52.102;20.614;2022-10-31T07:31:35;11.40;99.90
20442;DHT22;10380;52.102;20.614;2022-10-31T07:34:02;11.40;99.90
20442;DHT22;10380;52.102;20.614;2022-10-31T07:36:29;11.40;99.90
20442;DHT22;10380;52.102;20.614;2022-10-31T07:38:56;11.50;99.90
20442;DHT22;10380;52.102;20.614;2022-10-31T07:41:25;11.60;99.90
20442;DHT22;10380;52.102;20.614;2022-10-31T07:43:51;11.70;99.90
20442;DHT22;10380;52.102;20.614;2022-10-31T07:46:23;11.80;99.90
20442;DHT22;10380;52.102;20.614;2022-10-31T07:48:50;11.90;99.90
20442;DHT22;10380;52.102;20.614;2022-10-31T07:51:17;12.00;99.90
20442;DHT22;10380;52.102;20.614;2022-10-31T07:53:44;12.00;99.90
20442;DHT22;10380;52.102;20.614;2022-10-31T07:56:11;12.20;99.90
20442;DHT22;10380;52.102;20.614;2022-10-31T07:58:38;12.20;99.90
20442;DHT22;10380;52.102;20.614;2022-10-31T08:01:06;12.30;99.90
20442;DHT22;10380;52.102;20.614;2022-10-31T08:03:33;12.40;99.90
20442;DHT22;10380;52.102;20.614;2022-10-31T08:06:00;12.50;99.90
20442;DHT22;10380;52.102;20.614;2022-10-31T08:08:27;12.60;99.90
20442;DHT22;10380;52.102;20.614;2022-10-31T08:10:58;12.70;99.90
20442;DHT22;10380;52.102;20.614;2022-10-31T08:13:25;12.70;99.90
20442;DHT22;10380;52.102;20.614;2022-10-31T08:15:52;12.80;99.90
20442;DHT22;10380;52.102;20.614;2022-10-31T08:18:20;12.80;99.90
20442;DHT22;10380;52.102;20.614;2022-10-31T08:20:48;12.90;99.90
20442;DHT22;10380;52.102;20.614;2022-10-31T08:23:15;13.00;99.90
20442;DHT22;10380;52.102;20.614;2022-10-31T08:25:42;13.00;99.90
20442;DHT22;10380;52.102;20.614;2022-10-31T08:28:11;13.10;99.90
20442;DHT22;10380;52.102;20.614;2022-10-31T08:30:39;13.20;99.90
20442;DHT22;10380;52.102;20.614;2022-10-31T08:33:12;13.30;99.90
20442;DHT22;10380;52.102;20.614;2022-10-31T08:35:40;13.40;99.90
20442;DHT22;10380;52.102;20.614;2022-10-31T08:38:09;13.40;99.90
20442;DHT22;10380;52.102;20.614;2022-10-31T08:40:37;13.60;99.90
20442;DHT22;10380;52.102;20.614;2022-10-31T08:43:06;13.70;99.90
20442;DHT22;10380;52.102;20.614;2022-10-31T08:45:35;13.80;99.90
20442;DHT22;10380;52.102;20.614;2022-10-31T08:48:04;13.90;99.90
20442;DHT22;10380;52.102;20.614;2022-10-31T08:50:34;14.10;99.90
20442;DHT22;10380;52.102;20.614;2022-10-31T08:53:11;14.20;99.90
20442;DHT22;10380;52.102;20.614;2022-10-31T08:55:39;14.30;99.90
20442;DHT22;10380;52.102;20.614;2022-10-31T08:58:10;14.50;99.90
20442;DHT22;10380;52.102;20.614;2022-10-31T09:00:37;14.60;99.90
20442;DHT22;10380;52.102;20.614;2022-10-31T09:03:07;14.70;99.90
20442;DHT22;10380;52.102;20.614;2022-10-31T09:05:35;14.80;99.90
20442;DHT22;10380;52.102;20.614;2022-10-31T09:08:04;14.90;99.90
20442;DHT22;10380;52.102;20.614;2022-10-31T09:10:33;15.00;99.90
20442;DHT22;10380;52.102;20.614;2022-10-31T09:13:04;15.10;99.90
20442;DHT22;10380;52.102;20.614;2022-10-31T09:15:37;15.10;99.90
20442;DHT22;10380;52.102;20.614;2022-10-31T09:18:06;15.20;99.90
20442;DHT22;10380;52.102;20.614;2022-10-31T09:20:34;15.20;99.90
20442;DHT22;10380;52.102;20.614;2022-10-31T09:23:24;15.20;99.90
20442;DHT22;10380;52.102;20.614;2022-10-31T09:25:52;15.20;99.90
20442;DHT22;10380;52.102;20.614;2022-10-31T09:28:22;15.30;99.90
20442;DHT22;10380;52.102;20.614;2022-10-31T09:30:52;15.40;99.90
20442;DHT22;10380;52.102;20.614;2022-10-31T09:33:20;15.40;99.90
20442;DHT22;10380;52.102;20.614;2022-10-31T09:35:47;15.50;99.90
20442;DHT22;10380;52.102;20.614;2022-10-31T09:38:17;15.50;99.90
20442;DHT22;10380;52.102;20.614;2022-10-31T09:40:55;15.60;99.90
20442;DHT22;10380;52.102;20.614;2022-10-31T09:51:44;15.80;99.90
20442;DHT22;10380;52.102;20.614;2022-10-31T09:54:19;15.80;99.90
20442;DHT22;10380;52.102;20.614;2022-10-31T09:56:47;15.90;99.90
20442;DHT22;10380;52.102;20.614;2022-10-31T09:59:37;15.90;99.90
20442;DHT22;10380;52.102;20.614;2022-10-31T10:05:02;16.00;99.90
20442;DHT22;10380;52.102;20.614;2022-10-31T10:10:17;16.00;99.90
20442;DHT22;10380;52.102;20.614;2022-10-31T10:19:25;16.00;99.90
20442;DHT22;10380;52.102;20.614;2022-10-31T10:27:00;16.00;99.90
20442;DHT22;10380;52.102;20.614;2022-10-31T10:29:37;16.00;99.90
20442;DHT22;10380;52.102;20.614;2022-10-31T10:32:13;16.00;99.90
20442;DHT22;10380;52.102;20.614;2022-10-31T10:34:49;16.00;99.90
20442;DHT22;10380;52.102;20.614;2022-10-31T10:40:17;16.00;99.90
20442;DHT22;10380;52.102;20.614;2022-10-31T10:42:50;16.00;99.90
20442;DHT22;10380;52.102;20.614;2022-10-31T10:45:42;16.00;99.90
20442;DHT22;10380;52.102;20.614;2022-10-31T10:49:17;16.00;99.90
20442;DHT22;10380;52.102;20.614;2022-10-31T11:00:19;16.10;99.90
20442;DHT22;10380;52.102;20.614;2022-10-31T11:02:46;16.10;99.90
20442;DHT22;10380;52.102;20.614;2022-10-31T11:07:49;16.00;99.90
20442;DHT22;10380;52.102;20.614;2022-10-31T11:10:16;16.00;99.90
20442;DHT22;10380;52.102;20.614;2022-10-31T11:12:45;15.90;99.90
20442;DHT22;10380;52.102;20.614;2022-10-31T11:15:24;15.90;99.90
20442;DHT22;10380;52.102;20.614;2022-10-31T11:17:55;15.90;99.90
20442;DHT22;10380;52.102;20.614;2022-10-31T11:20:26;15.80;99.90
20442;DHT22;10380;52.102;20.614;2022-10-31T11:26:03;15.80;99.90
20442;DHT22;10380;52.102;20.614;2022-10-31T11:28:31;15.80;99.90
20442;DHT22;10380;52.102;20.614;2022-10-31T11:31:11;15.80;99.90
20442;DHT22;10380;52.102;20.614;2022-10-31T11:33:49;15.90;99.90
20442;DHT22;10380;52.102;20.614;2022-10-31T11:36:27;15.90;99.90
20442;DHT22;10380;52.102;20.614;2022-10-31T11:38:54;16.00;99.90
20442;DHT22;10380;52.102;20.614;2022-10-31T11:41:32;16.10;99.90
20442;DHT22;10380;52.102;20.614;2022-10-31T11:44:10;16.10;99.90
20442;DHT22;10380;52.102;20.614;2022-10-31T11:46:41;16.20;99.90
20442;DHT22;10380;52.102;20.614;2022-10-31T11:49:45;16.20;99.90
20442;DHT22;10380;52.102;20.614;2022-10-31T11:52:27;16.10;99.90
20442;DHT22;10380;52.102;20.614;2022-10-31T11:57:45;16.10;99.90
20442;DHT22;10380;52.102;20.614;2022-10-31T12:00:30;16.10;99.90
20442;DHT22;10380;52.102;20.614;2022-10-31T12:03:23;16.10;99.90
20442;DHT22;10380;52.102;20.614;2022-10-31T12:06:22;16.10;99.90
20442;DHT22;10380;52.102;20.614;2022-10-31T12:08:50;16.00;99.90
20442;DHT22;10380;52.102;20.614;2022-10-31T12:11:50;16.00;99.90
20442;DHT22;10380;52.102;20.614;2022-10-31T12:14:32;15.90;99.90
20442;DHT22;10380;52.102;20.614;2022-10-31T12:20:06;15.80;99.90
20442;DHT22;10380;52.102;20.614;2022-10-31T12:22:47;15.70;99.90
20442;DHT22;10380;52.102;20.614;2022-10-31T12:25:33;15.60;99.90
20442;DHT22;10380;52.102;20.614;2022-10-31T12:33:46;15.30;99.90
20442;DHT22;10380;52.102;20.614;2022-10-31T12:36:44;15.30;99.90
20442;DHT22;10380;52.102;20.614;2022-10-31T12:42:27;15.20;99.90
20442;DHT22;10380;52.102;20.614;2022-10-31T12:58:51;15.20;99.90
20442;DHT22;10380;52.102;20.614;2022-10-31T13:04:12;15.20;99.90
20442;DHT22;10380;52.102;20.614;2022-10-31T13:06:57;15.20;99.90
20442;DHT22;10380;52.102;20.614;2022-10-31T13:12:07;15.10;99.90
20442;DHT22;10380;52.102;20.614;2022-10-31T13:14:42;15.10;99.90
20442;DHT22;10380;52.102;20.614;2022-10-31T13:17:23;15.00;99.90
20442;DHT22;10380;52.102;20.614;2022-10-31T13:19:58;14.90;99.90
20442;DHT22;10380;52.102;20.614;2022-10-31T13:22:31;14.90;99.90
20442;DHT22;10380;52.102;20.614;2022-10-31T13:25:02;14.90;99.90
20442;DHT22;10380;52.102;20.614;2022-10-31T13:27:42;14.80;99.90
20442;DHT22;10380;52.102;20.614;2022-10-31T13:30:18;14.80;99.90
20442;DHT22;10380;52.102;20.614;2022-10-31T13:33:37;14.80;99.90
20442;DHT22;10380;52.102;20.614;2022-10-31T13:35:43;14.80;99.90
20442;DHT22;10380;52.102;20.614;2022-10-31T13:38:32;14.80;99.90
20442;DHT22;10380;52.102;20.614;2022-10-31T13:41:03;14.80;99.90
20442;DHT22;10380;52.102;20.614;2022-10-31T13:48:59;14.70;99.90
20442;DHT22;10380;52.102;20.614;2022-10-31T13:51:32;14.70;99.90
20442;DHT22;10380;52.102;20.614;2022-10-31T13:54:23;14.70;99.90
20442;DHT22;10380;52.102;20.614;2022-10-31T13:57:00;14.60;99.90
20442;DHT22;10380;52.102;20.614;2022-10-31T13:59:28;14.60;99.90
20442;DHT22;10380;52.102;20.614;2022-10-31T14:04:26;14.50;99.90
20442;DHT22;10380;52.102;20.614;2022-10-31T14:07:09;14.50;99.90
20442;DHT22;10380;52.102;20.614;2022-10-31T14:09:58;14.50;99.90
20442;DHT22;10380;52.102;20.614;2022-10-31T14:12:38;14.50;99.90
20442;DHT22;10380;52.102;20.614;2022-10-31T14:15:21;14.40;99.90
20442;DHT22;10380;52.102;20.614;2022-10-31T14:17:56;14.40;99.90
20442;DHT22;10380;52.102;20.614;2022-10-31T14:20:37;14.30;99.90
20442;DHT22;10380;52.102;20.614;2022-10-31T14:28:49;14.30;99.90
20442;DHT22;10380;52.102;20.614;2022-10-31T14:31:37;14.20;99.90
20442;DHT22;10380;52.102;20.614;2022-10-31T14:37:17;14.20;99.90
20442;DHT22;10380;52.102;20.614;2022-10-31T14:51:16;14.00;99.90
20442;DHT22;10380;52.102;20.614;2022-10-31T14:56:24;14.00;99.90
20442;DHT22;10380;52.102;20.614;2022-10-31T14:58:55;14.00;99.90
20442;DHT22;10380;52.102;20.614;2022-10-31T15:01:29;14.00;99.90
20442;DHT22;10380;52.102;20.614;2022-10-31T15:07:22;14.00;99.90
20442;DHT22;10380;52.102;20.614;2022-10-31T15:10:05;14.00;99.90
20442;DHT22;10380;52.102;20.614;2022-10-31T15:12:34;13.90;99.90
20442;DHT22;10380;52.102;20.614;2022-10-31T15:15:24;13.90;99.90
20442;DHT22;10380;52.102;20.614;2022-10-31T15:18:00;13.90;99.90
20442;DHT22;10380;52.102;20.614;2022-10-31T15:20:37;13.90;99.90
20442;DHT22;10380;52.102;20.614;2022-10-31T15:23:25;13.90;99.90
20442;DHT22;10380;52.102;20.614;2022-10-31T15:26:03;13.90;99.90
20442;DHT22;10380;52.102;20.614;2022-10-31T15:28:32;13.80;99.90
20442;DHT22;10380;52.102;20.614;2022-10-31T15:31:00;13.80;99.90
20442;DHT22;10380;52.102;20.614;2022-10-31T15:33:38;13.80;99.90
20442;DHT22;10380;52.102;20.614;2022-10-31T15:36:24;13.80;99.90
20442;DHT22;10380;52.102;20.614;2022-10-31T15:38:57;13.70;99.90
20442;DHT22;10380;52.102;20.614;2022-10-31T15:44:33;13.70;99.90
20442;DHT22;10380;52.102;20.614;2022-10-31T15:47:04;13.60;99.90
20442;DHT22;10380;52.102;20.614;2022-10-31T15:52:04;13.50;99.90
20442;DHT22;10380;52.102;20.614;2022-10-31T15:54:32;13.60;99.90
20442;DHT22;10380;52.102;20.614;2022-10-31T15:57:00;13.60;99.90
20442;DHT22;10380;52.102;20.614;2022-10-31T15:59:27;13.60;99.90
20442;DHT22;10380;52.102;20.614;2022-10-31T16:02:00;13.60;99.90
20442;DHT22;10380;52.102;20.614;2022-10-31T16:04:29;13.60;99.90
20442;DHT22;10380;52.102;20.614;2022-10-31T16:09:28;13.60;99.90
20442;DHT22;10380;52.102;20.614;2022-10-31T16:11:56;13.60;99.90
20442;DHT22;10380;52.102;20.614;2022-10-31T16:14:27;13.60;99.90
20442;DHT22;10380;52.102;20.614;2022-10-31T16:16:57;13.60;99.90
20442;DHT22;10380;52.102;20.614;2022-10-31T16:19:34;13.60;99.90
20442;DHT22;10380;52.102;20.614;2022-10-31T16:22:09;13.60;99.90
20442;DHT22;10380;52.102;20.614;2022-10-31T16:24:54;13.60;99.90
20442;DHT22;10380;52.102;20.614;2022-10-31T16:27:24;13.60;99.90
20442;DHT22;10380;52.102;20.614;2022-10-31T16:29:56;13.50;99.90
20442;DHT22;10380;52.102;20.614;2022-10-31T16:32:36;13.50;99.90
20442;DHT22;10380;52.102;20.614;2022-10-31T16:37:40;13.50;99.90
20442;DHT22;10380;52.102;20.614;2022-10-31T16:40:10;13.50;99.90
20442;DHT22;10380;52.102;20.614;2022-10-31T16:42:37;13.40;99.90
20442;DHT22;10380;52.102;20.614;2022-10-31T16:45:14;13.40;99.90
20442;DHT22;10380;52.102;20.614;2022-10-31T16:47:41;13.30;99.90
20442;DHT22;10380;52.102;20.614;2022-10-31T16:50:14;13.30;99.90
20442;DHT22;10380;52.102;20.614;2022-10-31T16:52:41;13.30;99.90
20442;DHT22;10380;52.102;20.614;2022-10-31T16:55:28;13.30;99.90
20442;DHT22;10380;52.102;20.614;2022-10-31T16:57:56;13.20;99.90
20442;DHT22;10380;52.102;20.614;2022-10-31T17:00:25;13.20;99.90
20442;DHT22;10380;52.102;20.614;2022-10-31T17:02:55;13.20;99.90
20442;DHT22;10380;52.102;20.614;2022-10-31T17:05:25;13.30;99.90
20442;DHT22;10380;52.102;20.614;2022-10-31T17:07:56;13.20;99.90
20442;DHT22;10380;52.102;20.614;2022-10-31T17:10:24;13.30;99.90
20442;DHT22;10380;52.102;20.614;2022-10-31T17:12:51;13.30;99.90
20442;DHT22;10380;52.102;20.614;2022-10-31T17:15:21;13.30;99.90
20442;DHT22;10380;52.102;20.614;2022-10-31T17:17:49;13.30;99.90
20442;DHT22;10380;52.102;20.614;2022-10-31T17:20:26;13.20;99.90
20442;DHT22;10380;52.102;20.614;2022-10-31T17:22:54;13.20;99.90
20442;DHT22;10380;52.102;20.614;2022-10-31T17:25:24;13.10;99.90
20442;DHT22;10380;52.102;20.614;2022-10-31T17:27:51;13.10;99.90
20442;DHT22;10380;52.102;20.614;2022-10-31T17:30:20;13.00;99.90
20442;DHT22;10380;52.102;20.614;2022-10-31T17:32:48;13.00;99.90
20442;DHT22;10380;52.102;20.614;2022-10-31T17:35:16;13.00;99.90
20442;DHT22;10380;52.102;20.614;2022-10-31T17:37:44;13.00;99.90
20442;DHT22;10380;52.102;20.614;2022-10-31T17:40:14;13.00;99.90
20442;DHT22;10380;52.102;20.614;2022-10-31T17:42:41;13.00;99.90
20442;DHT22;10380;52.102;20.614;2022-10-31T17:45:09;13.00;99.90
20442;DHT22;10380;52.102;20.614;2022-10-31T17:47:35;12.90;99.90
20442;DHT22;10380;52.102;20.614;2022-10-31T17:50:04;12.90;99.90
20442;DHT22;10380;52.102;20.614;2022-10-31T17:52:30;13.00;99.90
20442;DHT22;10380;52.102;20.614;2022-10-31T17:54:57;12.90;99.90
20442;DHT22;10380;52.102;20.614;2022-10-31T17:57:24;13.00;99.90
20442;DHT22;10380;52.102;20.614;2022-10-31T17:59:51;12.90;99.90
20442;DHT22;10380;52.102;20.614;2022-10-31T18:02:18;12.80;99.90
20442;DHT22;10380;52.102;20.614;2022-10-31T18:04:45;12.90;99.90
20442;DHT22;10380;52.102;20.614;2022-10-31T18:07:12;12.80;99.90
20442;DHT22;10380;52.102;20.614;2022-10-31T18:09:47;12.80;99.90
20442;DHT22;10380;52.102;20.614;2022-10-31T18:12:15;12.80;99.90
20442;DHT22;10380;52.102;20.614;2022-10-31T18:14:42;12.80;99.90
20442;DHT22;10380;52.102;20.614;2022-10-31T18:17:14;12.80;99.90
20442;DHT22;10380;52.102;20.614;2022-10-31T18:19:41;12.70;99.90
20442;DHT22;10380;52.102;20.614;2022-10-31T18:22:07;12.70;99.90
20442;DHT22;10380;52.102;20.614;2022-10-31T18:24:34;12.70;99.90
20442;DHT22;10380;52.102;20.614;2022-10-31T18:27:01;12.70;99.90